createdAt,value
2022-11-17T10:53:12.863Z,2.73
2022-11-17T10:55:45.784Z,3.60
2022-11-17T11:55:38.180Z,2.20
2022-11-17T11:58:18.996Z,1.70
2022-11-17T12:01:05.740Z,1.77
2022-11-17T12:03:37.018Z,1.40
2022-11-17T12:56:33.011Z,1.30
2022-11-17T13:19:19.514Z,2.20
2022-11-17T14:06:04.791Z,1.00
2022-11-17T14:22:00.562Z,1.20
2022-11-17T14:25:06.775Z,1.10
2022-11-17T14:32:06.081Z,0.87
2022-11-17T14:36:30.200Z,1.33
2022-11-17T14:40:27.672Z,0.90
2022-11-17T14:44:08.799Z,1.20
2022-11-17T15:22:14.624Z,1.10
2022-11-17T15:24:42.852Z,1.57
2022-11-17T15:27:11.362Z,1.33
2022-11-17T15:29:39.624Z,1.27
2022-11-17T15:32:08.250Z,1.70
2022-11-17T15:34:46.085Z,1.67
2022-11-17T15:37:15.518Z,2.77
2022-11-17T15:39:43.556Z,2.57
2022-11-17T15:42:11.643Z,2.27
2022-11-17T15:44:41.044Z,5.20
2022-11-17T15:47:09.174Z,2.07
2022-11-17T15:49:37.180Z,4.57
2022-11-17T15:52:05.619Z,5.40
2022-11-17T15:54:34.918Z,4.80
2022-11-17T15:57:03.189Z,3.40
2022-11-17T15:59:31.228Z,5.03
2022-11-17T16:01:59.380Z,3.53
2022-11-17T16:04:27.491Z,2.77
2022-11-17T16:06:57.257Z,3.53
2022-11-17T16:09:25.369Z,1.90
2022-11-17T16:11:54.980Z,2.50
2022-11-17T16:14:23.215Z,2.40
2022-11-17T16:16:51.317Z,3.40
2022-11-17T16:19:19.498Z,2.90
2022-11-17T16:21:47.827Z,2.80
2022-11-17T16:24:16.036Z,2.83
2022-11-17T16:26:44.855Z,2.17
2022-11-17T16:29:15.285Z,3.87
2022-11-17T16:31:43.612Z,4.47
2022-11-17T16:34:13.580Z,3.30
2022-11-17T16:36:43.035Z,4.30
2022-11-17T16:39:14.489Z,4.27
2022-11-17T16:41:45.351Z,9.20
2022-11-17T16:44:16.688Z,3.40
2022-11-17T16:46:46.227Z,4.17
2022-11-17T16:49:16.459Z,4.70
2022-11-17T16:51:48.078Z,9.40
2022-11-17T16:54:16.874Z,14.53
2022-11-17T16:56:45.624Z,10.00
2022-11-17T16:59:15.856Z,6.83
2022-11-17T17:01:44.801Z,7.03
2022-11-17T17:04:13.769Z,5.40
2022-11-17T17:06:42.778Z,8.47
2022-11-17T17:09:12.260Z,3.70
